sensor_id;sensor_type;location;lat;lon;timestamp;P1;durP1;ratioP1;P2;durP2;ratioP2
10309;SDS011;5200;43.236;27.986;2023-07-16T00:01:00;7.55;;;4.65;;
10309;SDS011;5200;43.236;27.986;2023-07-16T00:03:27;5.90;;;4.32;;
10309;SDS011;5200;43.236;27.986;2023-07-16T00:05:54;8.13;;;5.07;;
10309;SDS011;5200;43.236;27.986;2023-07-16T00:08:21;8.82;;;5.40;;
10309;SDS011;5200;43.236;27.986;2023-07-16T00:10:49;5.03;;;4.63;;
10309;SDS011;5200;43.236;27.986;2023-07-16T00:13:16;7.03;;;4.40;;
10309;SDS011;5200;43.236;27.986;2023-07-16T00:15:43;5.20;;;4.55;;
10309;SDS011;5200;43.236;27.986;2023-07-16T00:18:10;4.57;;;4.15;;
10309;SDS011;5200;43.236;27.986;2023-07-16T00:20:37;6.32;;;4.10;;
10309;SDS011;5200;43.236;27.986;2023-07-16T00:23:04;5.80;;;4.13;;
10309;SDS011;5200;43.236;27.986;2023-07-16T00:25:32;7.07;;;3.97;;
10309;SDS011;5200;43.236;27.986;2023-07-16T00:28:01;4.28;;;3.97;;
10309;SDS011;5200;43.236;27.986;2023-07-16T00:30:28;5.22;;;4.20;;
10309;SDS011;5200;43.236;27.986;2023-07-16T00:32:55;5.72;;;4.35;;
10309;SDS011;5200;43.236;27.986;2023-07-16T00:35:22;6.28;;;4.40;;
10309;SDS011;5200;43.236;27.986;2023-07-16T00:37:49;5.82;;;4.10;;
10309;SDS011;5200;43.236;27.986;2023-07-16T00:40:16;7.60;;;4.55;;
10309;SDS011;5200;43.236;27.986;2023-07-16T00:42:43;10.80;;;4.28;;
10309;SDS011;5200;43.236;27.986;2023-07-16T00:45:12;5.25;;;4.10;;
10309;SDS011;5200;43.236;27.986;2023-07-16T00:47:40;5.78;;;4.20;;
10309;SDS011;5200;43.236;27.986;2023-07-16T00:50:09;13.15;;;4.68;;
10309;SDS011;5200;43.236;27.986;2023-07-16T00:52:37;6.88;;;4.10;;
10309;SDS011;5200;43.236;27.986;2023-07-16T00:55:05;6.43;;;4.30;;
10309;SDS011;5200;43.236;27.986;2023-07-16T00:57:34;5.88;;;4.10;;
10309;SDS011;5200;43.236;27.986;2023-07-16T01:00:01;4.40;;;3.97;;
10309;SDS011;5200;43.236;27.986;2023-07-16T01:02:31;8.45;;;4.25;;
10309;SDS011;5200;43.236;27.986;2023-07-16T01:05:01;4.38;;;4.00;;
10309;SDS011;5200;43.236;27.986;2023-07-16T01:07:28;6.10;;;4.32;;
10309;SDS011;5200;43.236;27.986;2023-07-16T01:09:57;6.53;;;4.28;;
10309;SDS011;5200;43.236;27.986;2023-07-16T01:12:24;4.38;;;4.03;;
10309;SDS011;5200;43.236;27.986;2023-07-16T01:14:53;6.10;;;4.13;;
10309;SDS011;5200;43.236;27.986;2023-07-16T01:17:22;5.40;;;4.07;;
10309;SDS011;5200;43.236;27.986;2023-07-16T01:19:50;5.28;;;4.28;;
10309;SDS011;5200;43.236;27.986;2023-07-16T01:22:27;4.93;;;4.40;;
10309;SDS011;5200;43.236;27.986;2023-07-16T01:25:29;5.35;;;4.45;;
10309;SDS011;5200;43.236;27.986;2023-07-16T01:31:06;5.47;;;3.85;;
10309;SDS011;5200;43.236;27.986;2023-07-16T01:33:35;5.90;;;4.22;;
10309;SDS011;5200;43.236;27.986;2023-07-16T01:36:03;4.88;;;4.13;;
10309;SDS011;5200;43.236;27.986;2023-07-16T01:38:32;4.93;;;4.13;;
10309;SDS011;5200;43.236;27.986;2023-07-16T01:40:59;4.82;;;4.43;;
10309;SDS011;5200;43.236;27.986;2023-07-16T01:43:26;4.80;;;4.38;;
10309;SDS011;5200;43.236;27.986;2023-07-16T01:45:53;4.63;;;4.22;;
10309;SDS011;5200;43.236;27.986;2023-07-16T01:48:24;4.75;;;4.35;;
10309;SDS011;5200;43.236;27.986;2023-07-16T01:50:56;4.57;;;4.22;;
10309;SDS011;5200;43.236;27.986;2023-07-16T01:53:23;4.65;;;4.30;;
10309;SDS011;5200;43.236;27.986;2023-07-16T01:55:50;4.85;;;4.32;;
10309;SDS011;5200;43.236;27.986;2023-07-16T01:58:16;5.28;;;4.70;;
10309;SDS011;5200;43.236;27.986;2023-07-16T02:00:43;4.90;;;4.43;;
10309;SDS011;5200;43.236;27.986;2023-07-16T02:03:11;4.82;;;4.35;;
10309;SDS011;5200;43.236;27.986;2023-07-16T02:05:39;7.20;;;4.05;;
10309;SDS011;5200;43.236;27.986;2023-07-16T02:08:06;9.52;;;4.45;;
10309;SDS011;5200;43.236;27.986;2023-07-16T02:10:33;9.27;;;4.70;;
10309;SDS011;5200;43.236;27.986;2023-07-16T02:13:01;9.38;;;4.90;;
10309;SDS011;5200;43.236;27.986;2023-07-16T02:15:28;6.90;;;5.05;;
10309;SDS011;5200;43.236;27.986;2023-07-16T02:17:54;5.45;;;4.50;;
10309;SDS011;5200;43.236;27.986;2023-07-16T02:20:21;5.57;;;4.97;;
10309;SDS011;5200;43.236;27.986;2023-07-16T02:22:49;5.20;;;4.70;;
10309;SDS011;5200;43.236;27.986;2023-07-16T02:25:16;4.93;;;4.40;;
10309;SDS011;5200;43.236;27.986;2023-07-16T02:27:44;7.00;;;4.57;;
10309;SDS011;5200;43.236;27.986;2023-07-16T02:30:11;4.95;;;4.30;;
10309;SDS011;5200;43.236;27.986;2023-07-16T02:32:40;6.35;;;4.40;;
10309;SDS011;5200;43.236;27.986;2023-07-16T02:35:07;13.65;;;5.40;;
10309;SDS011;5200;43.236;27.986;2023-07-16T02:37:34;8.13;;;4.28;;
10309;SDS011;5200;43.236;27.986;2023-07-16T02:40:02;6.07;;;4.63;;
10309;SDS011;5200;43.236;27.986;2023-07-16T02:42:30;6.13;;;4.82;;
10309;SDS011;5200;43.236;27.986;2023-07-16T02:44:56;4.57;;;4.18;;
10309;SDS011;5200;43.236;27.986;2023-07-16T02:47:23;4.25;;;3.95;;
10309;SDS011;5200;43.236;27.986;2023-07-16T02:49:50;5.22;;;4.63;;
10309;SDS011;5200;43.236;27.986;2023-07-16T02:52:18;8.45;;;5.03;;
10309;SDS011;5200;43.236;27.986;2023-07-16T02:54:45;6.30;;;4.68;;
10309;SDS011;5200;43.236;27.986;2023-07-16T02:57:13;4.82;;;4.28;;
10309;SDS011;5200;43.236;27.986;2023-07-16T02:59:40;4.32;;;3.92;;
10309;SDS011;5200;43.236;27.986;2023-07-16T03:02:06;4.75;;;4.00;;
10309;SDS011;5200;43.236;27.986;2023-07-16T03:04:33;4.55;;;4.03;;
10309;SDS011;5200;43.236;27.986;2023-07-16T03:07:01;4.82;;;4.13;;
10309;SDS011;5200;43.236;27.986;2023-07-16T03:09:28;5.10;;;3.67;;
10309;SDS011;5200;43.236;27.986;2023-07-16T03:11:54;3.67;;;3.30;;
10309;SDS011;5200;43.236;27.986;2023-07-16T03:14:23;3.40;;;3.10;;
10309;SDS011;5200;43.236;27.986;2023-07-16T03:16:49;3.83;;;3.42;;
10309;SDS011;5200;43.236;27.986;2023-07-16T03:19:16;4.18;;;3.30;;
10309;SDS011;5200;43.236;27.986;2023-07-16T03:21:43;3.50;;;3.20;;
10309;SDS011;5200;43.236;27.986;2023-07-16T03:24:11;5.75;;;3.15;;
10309;SDS011;5200;43.236;27.986;2023-07-16T03:26:37;3.95;;;2.78;;
10309;SDS011;5200;43.236;27.986;2023-07-16T03:29:04;5.63;;;2.95;;
10309;SDS011;5200;43.236;27.986;2023-07-16T03:31:32;3.22;;;2.90;;
10309;SDS011;5200;43.236;27.986;2023-07-16T03:33:59;4.70;;;2.90;;
10309;SDS011;5200;43.236;27.986;2023-07-16T03:36:26;4.70;;;2.80;;
10309;SDS011;5200;43.236;27.986;2023-07-16T03:38:53;2.97;;;2.58;;
10309;SDS011;5200;43.236;27.986;2023-07-16T03:41:19;3.20;;;2.90;;
10309;SDS011;5200;43.236;27.986;2023-07-16T03:43:46;3.70;;;2.70;;
10309;SDS011;5200;43.236;27.986;2023-07-16T03:46:13;5.45;;;2.65;;
10309;SDS011;5200;43.236;27.986;2023-07-16T03:48:41;3.00;;;2.70;;
10309;SDS011;5200;43.236;27.986;2023-07-16T03:51:08;3.25;;;2.90;;
10309;SDS011;5200;43.236;27.986;2023-07-16T03:53:35;5.20;;;2.60;;
10309;SDS011;5200;43.236;27.986;2023-07-16T03:56:01;4.10;;;2.83;;
10309;SDS011;5200;43.236;27.986;2023-07-16T03:58:28;4.82;;;2.90;;
10309;SDS011;5200;43.236;27.986;2023-07-16T04:00:55;5.20;;;2.53;;
10309;SDS011;5200;43.236;27.986;2023-07-16T04:03:22;3.53;;;2.75;;
10309;SDS011;5200;43.236;27.986;2023-07-16T04:05:51;2.50;;;2.30;;
10309;SDS011;5200;43.236;27.986;2023-07-16T04:08:18;7.65;;;2.65;;
10309;SDS011;5200;43.236;27.986;2023-07-16T04:10:45;6.45;;;2.40;;
10309;SDS011;5200;43.236;27.986;2023-07-16T04:13:11;3.63;;;2.70;;
10309;SDS011;5200;43.236;27.986;2023-07-16T04:15:38;4.95;;;2.47;;
10309;SDS011;5200;43.236;27.986;2023-07-16T04:18:05;2.47;;;2.30;;
10309;SDS011;5200;43.236;27.986;2023-07-16T04:20:32;2.10;;;1.90;;
10309;SDS011;5200;43.236;27.986;2023-07-16T04:23:00;2.72;;;2.53;;
10309;SDS011;5200;43.236;27.986;2023-07-16T04:25:27;3.65;;;2.72;;
10309;SDS011;5200;43.236;27.986;2023-07-16T04:27:55;3.97;;;2.30;;
10309;SDS011;5200;43.236;27.986;2023-07-16T04:30:22;2.78;;;2.35;;
10309;SDS011;5200;43.236;27.986;2023-07-16T04:32:49;3.38;;;2.65;;
10309;SDS011;5200;43.236;27.986;2023-07-16T04:35:15;3.45;;;2.50;;
10309;SDS011;5200;43.236;27.986;2023-07-16T04:37:43;2.60;;;2.28;;
10309;SDS011;5200;43.236;27.986;2023-07-16T04:40:11;4.05;;;2.10;;
10309;SDS011;5200;43.236;27.986;2023-07-16T04:42:38;4.90;;;2.40;;
10309;SDS011;5200;43.236;27.986;2023-07-16T04:45:05;2.65;;;2.42;;
10309;SDS011;5200;43.236;27.986;2023-07-16T04:47:32;3.10;;;2.45;;
10309;SDS011;5200;43.236;27.986;2023-07-16T04:49:59;3.35;;;2.33;;
10309;SDS011;5200;43.236;27.986;2023-07-16T04:52:26;4.68;;;2.38;;
10309;SDS011;5200;43.236;27.986;2023-07-16T04:54:53;2.50;;;2.25;;
10309;SDS011;5200;43.236;27.986;2023-07-16T04:57:21;3.78;;;2.17;;
10309;SDS011;5200;43.236;27.986;2023-07-16T04:59:48;6.30;;;2.40;;
10309;SDS011;5200;43.236;27.986;2023-07-16T05:02:17;3.28;;;2.35;;
10309;SDS011;5200;43.236;27.986;2023-07-16T05:04:44;3.40;;;2.47;;
10309;SDS011;5200;43.236;27.986;2023-07-16T05:07:13;3.25;;;2.38;;
10309;SDS011;5200;43.236;27.986;2023-07-16T05:09:40;4.63;;;2.22;;
10309;SDS011;5200;43.236;27.986;2023-07-16T05:12:07;4.05;;;2.35;;
10309;SDS011;5200;43.236;27.986;2023-07-16T05:14:42;2.90;;;2.50;;
10309;SDS011;5200;43.236;27.986;2023-07-16T05:17:10;2.72;;;2.40;;
10309;SDS011;5200;43.236;27.986;2023-07-16T05:19:37;2.83;;;2.60;;
10309;SDS011;5200;43.236;27.986;2023-07-16T05:22:04;3.83;;;2.38;;
10309;SDS011;5200;43.236;27.986;2023-07-16T05:24:31;3.63;;;2.40;;
10309;SDS011;5200;43.236;27.986;2023-07-16T05:26:58;3.75;;;2.88;;
10309;SDS011;5200;43.236;27.986;2023-07-16T05:29:25;3.78;;;2.20;;
10309;SDS011;5200;43.236;27.986;2023-07-16T05:31:53;3.92;;;2.70;;
10309;SDS011;5200;43.236;27.986;2023-07-16T05:34:20;3.28;;;2.72;;
10309;SDS011;5200;43.236;27.986;2023-07-16T05:36:46;4.15;;;2.58;;
10309;SDS011;5200;43.236;27.986;2023-07-16T05:39:13;2.50;;;2.30;;
10309;SDS011;5200;43.236;27.986;2023-07-16T05:41:40;2.72;;;2.30;;
10309;SDS011;5200;43.236;27.986;2023-07-16T05:44:07;3.60;;;2.60;;
10309;SDS011;5200;43.236;27.986;2023-07-16T05:46:34;2.47;;;2.13;;
10309;SDS011;5200;43.236;27.986;2023-07-16T05:49:03;2.25;;;2.05;;
10309;SDS011;5200;43.236;27.986;2023-07-16T05:51:30;4.10;;;2.58;;
10309;SDS011;5200;43.236;27.986;2023-07-16T05:53:56;6.18;;;2.80;;
10309;SDS011;5200;43.236;27.986;2023-07-16T05:56:25;4.50;;;2.40;;
10309;SDS011;5200;43.236;27.986;2023-07-16T05:58:52;3.50;;;2.78;;
10309;SDS011;5200;43.236;27.986;2023-07-16T06:01:18;2.53;;;2.25;;
10309;SDS011;5200;43.236;27.986;2023-07-16T06:03:45;3.17;;;2.33;;
10309;SDS011;5200;43.236;27.986;2023-07-16T06:06:13;3.33;;;2.80;;
10309;SDS011;5200;43.236;27.986;2023-07-16T06:08:40;2.20;;;2.00;;
10309;SDS011;5200;43.236;27.986;2023-07-16T06:11:07;5.10;;;2.40;;
10309;SDS011;5200;43.236;27.986;2023-07-16T06:13:34;3.03;;;2.28;;
10309;SDS011;5200;43.236;27.986;2023-07-16T06:16:01;6.60;;;2.60;;
10309;SDS011;5200;43.236;27.986;2023-07-16T06:18:27;2.58;;;2.30;;
10309;SDS011;5200;43.236;27.986;2023-07-16T06:20:54;3.15;;;2.72;;
10309;SDS011;5200;43.236;27.986;2023-07-16T06:23:22;3.10;;;2.53;;
10309;SDS011;5200;43.236;27.986;2023-07-16T06:25:53;2.55;;;2.30;;
10309;SDS011;5200;43.236;27.986;2023-07-16T06:28:20;3.65;;;2.50;;
10309;SDS011;5200;43.236;27.986;2023-07-16T06:30:47;5.93;;;2.50;;
10309;SDS011;5200;43.236;27.986;2023-07-16T06:33:14;4.10;;;2.30;;
10309;SDS011;5200;43.236;27.986;2023-07-16T06:35:43;5.82;;;2.35;;
10309;SDS011;5200;43.236;27.986;2023-07-16T06:38:11;4.45;;;2.38;;
10309;SDS011;5200;43.236;27.986;2023-07-16T06:40:39;2.97;;;2.65;;
10309;SDS011;5200;43.236;27.986;2023-07-16T06:43:05;4.05;;;2.20;;
10309;SDS011;5200;43.236;27.986;2023-07-16T06:45:32;2.53;;;2.33;;
10309;SDS011;5200;43.236;27.986;2023-07-16T06:47:59;2.95;;;2.60;;
10309;SDS011;5200;43.236;27.986;2023-07-16T06:50:26;3.38;;;2.42;;
10309;SDS011;5200;43.236;27.986;2023-07-16T06:52:53;3.03;;;2.72;;
10309;SDS011;5200;43.236;27.986;2023-07-16T06:55:19;5.43;;;3.00;;
10309;SDS011;5200;43.236;27.986;2023-07-16T06:57:47;2.72;;;2.38;;
10309;SDS011;5200;43.236;27.986;2023-07-16T07:00:14;2.92;;;2.58;;
10309;SDS011;5200;43.236;27.986;2023-07-16T07:02:41;3.28;;;2.50;;
10309;SDS011;5200;43.236;27.986;2023-07-16T07:05:08;3.67;;;2.95;;
10309;SDS011;5200;43.236;27.986;2023-07-16T07:07:35;3.58;;;2.55;;
10309;SDS011;5200;43.236;27.986;2023-07-16T07:10:02;3.22;;;2.60;;
10309;SDS011;5200;43.236;27.986;2023-07-16T07:12:30;4.40;;;2.50;;
10309;SDS011;5200;43.236;27.986;2023-07-16T07:15:04;4.15;;;2.25;;
10309;SDS011;5200;43.236;27.986;2023-07-16T07:17:32;2.67;;;2.42;;
10309;SDS011;5200;43.236;27.986;2023-07-16T07:19:59;2.80;;;2.25;;
10309;SDS011;5200;43.236;27.986;2023-07-16T07:22:26;3.40;;;2.35;;
10309;SDS011;5200;43.236;27.986;2023-07-16T07:24:53;2.85;;;2.47;;
10309;SDS011;5200;43.236;27.986;2023-07-16T07:27:20;3.83;;;2.15;;
10309;SDS011;5200;43.236;27.986;2023-07-16T07:29:46;4.63;;;2.42;;
10309;SDS011;5200;43.236;27.986;2023-07-16T07:32:18;3.00;;;2.70;;
10309;SDS011;5200;43.236;27.986;2023-07-16T07:34:45;2.55;;;2.35;;
10309;SDS011;5200;43.236;27.986;2023-07-16T07:37:12;5.82;;;2.35;;
10309;SDS011;5200;43.236;27.986;2023-07-16T07:39:39;4.70;;;2.50;;
10309;SDS011;5200;43.236;27.986;2023-07-16T07:42:06;2.47;;;2.28;;
10309;SDS011;5200;43.236;27.986;2023-07-16T07:44:35;2.67;;;2.47;;
10309;SDS011;5200;43.236;27.986;2023-07-16T07:47:02;2.75;;;2.08;;
10309;SDS011;5200;43.236;27.986;2023-07-16T07:49:30;3.53;;;2.35;;
10309;SDS011;5200;43.236;27.986;2023-07-16T07:51:58;2.75;;;2.50;;
10309;SDS011;5200;43.236;27.986;2023-07-16T07:54:25;6.03;;;2.47;;
10309;SDS011;5200;43.236;27.986;2023-07-16T07:56:51;4.90;;;2.95;;
10309;SDS011;5200;43.236;27.986;2023-07-16T07:59:18;2.45;;;2.03;;
10309;SDS011;5200;43.236;27.986;2023-07-16T08:01:45;5.15;;;2.55;;
10309;SDS011;5200;43.236;27.986;2023-07-16T08:04:12;5.43;;;3.38;;
10309;SDS011;5200;43.236;27.986;2023-07-16T08:06:40;4.93;;;3.88;;
10309;SDS011;5200;43.236;27.986;2023-07-16T08:09:08;4.82;;;4.30;;
10309;SDS011;5200;43.236;27.986;2023-07-16T08:11:35;8.07;;;6.00;;
10309;SDS011;5200;43.236;27.986;2023-07-16T08:14:02;6.03;;;4.43;;
10309;SDS011;5200;43.236;27.986;2023-07-16T08:16:29;11.32;;;9.75;;
10309;SDS011;5200;43.236;27.986;2023-07-16T08:18:56;3.75;;;3.08;;
10309;SDS011;5200;43.236;27.986;2023-07-16T08:21:22;3.83;;;3.40;;
10309;SDS011;5200;43.236;27.986;2023-07-16T08:23:51;4.32;;;2.65;;
10309;SDS011;5200;43.236;27.986;2023-07-16T08:26:18;6.97;;;6.22;;
10309;SDS011;5200;43.236;27.986;2023-07-16T08:28:45;4.35;;;3.95;;
10309;SDS011;5200;43.236;27.986;2023-07-16T08:31:12;6.40;;;5.20;;
10309;SDS011;5200;43.236;27.986;2023-07-16T08:33:39;8.30;;;4.85;;
10309;SDS011;5200;43.236;27.986;2023-07-16T08:36:06;4.57;;;4.18;;
10309;SDS011;5200;43.236;27.986;2023-07-16T08:38:33;5.60;;;5.10;;
10309;SDS011;5200;43.236;27.986;2023-07-16T08:41:01;3.78;;;2.05;;
10309;SDS011;5200;43.236;27.986;2023-07-16T08:43:28;3.55;;;3.22;;
10309;SDS011;5200;43.236;27.986;2023-07-16T08:45:56;4.97;;;2.80;;
10309;SDS011;5200;43.236;27.986;2023-07-16T08:48:23;3.22;;;3.00;;
10309;SDS011;5200;43.236;27.986;2023-07-16T08:50:51;3.13;;;2.33;;
10309;SDS011;5200;43.236;27.986;2023-07-16T08:53:18;3.55;;;2.55;;
10309;SDS011;5200;43.236;27.986;2023-07-16T08:55:45;3.03;;;2.83;;
10309;SDS011;5200;43.236;27.986;2023-07-16T08:58:15;3.28;;;2.45;;
10309;SDS011;5200;43.236;27.986;2023-07-16T09:00:42;3.60;;;2.83;;
10309;SDS011;5200;43.236;27.986;2023-07-16T09:03:10;2.40;;;2.20;;
10309;SDS011;5200;43.236;27.986;2023-07-16T09:05:38;3.63;;;2.15;;
10309;SDS011;5200;43.236;27.986;2023-07-16T09:08:05;6.18;;;2.38;;
10309;SDS011;5200;43.236;27.986;2023-07-16T09:10:32;2.10;;;2.00;;
10309;SDS011;5200;43.236;27.986;2023-07-16T09:12:59;2.42;;;2.22;;
10309;SDS011;5200;43.236;27.986;2023-07-16T09:15:28;2.80;;;1.90;;
10309;SDS011;5200;43.236;27.986;2023-07-16T09:17:55;2.45;;;1.90;;
10309;SDS011;5200;43.236;27.986;2023-07-16T09:20:22;2.65;;;2.03;;
10309;SDS011;5200;43.236;27.986;2023-07-16T09:22:49;3.60;;;2.13;;
10309;SDS011;5200;43.236;27.986;2023-07-16T09:25:19;6.35;;;2.50;;
10309;SDS011;5200;43.236;27.986;2023-07-16T09:27:48;4.05;;;2.38;;
10309;SDS011;5200;43.236;27.986;2023-07-16T09:30:15;2.47;;;2.08;;
10309;SDS011;5200;43.236;27.986;2023-07-16T09:32:44;3.33;;;2.20;;
10309;SDS011;5200;43.236;27.986;2023-07-16T09:35:11;3.38;;;2.10;;
10309;SDS011;5200;43.236;27.986;2023-07-16T09:37:39;2.13;;;1.95;;
10309;SDS011;5200;43.236;27.986;2023-07-16T09:40:07;5.20;;;2.10;;
10309;SDS011;5200;43.236;27.986;2023-07-16T09:42:36;1.95;;;1.85;;
10309;SDS011;5200;43.236;27.986;2023-07-16T09:45:05;3.25;;;2.10;;
10309;SDS011;5200;43.236;27.986;2023-07-16T09:47:33;5.85;;;2.47;;
10309;SDS011;5200;43.236;27.986;2023-07-16T09:50:02;3.33;;;2.20;;
10309;SDS011;5200;43.236;27.986;2023-07-16T09:52:29;2.72;;;2.10;;
10309;SDS011;5200;43.236;27.986;2023-07-16T09:54:58;2.35;;;2.03;;
10309;SDS011;5200;43.236;27.986;2023-07-16T09:57:28;2.47;;;2.13;;
10309;SDS011;5200;43.236;27.986;2023-07-16T09:59:58;5.03;;;2.50;;
10309;SDS011;5200;43.236;27.986;2023-07-16T10:02:30;3.05;;;2.30;;
10309;SDS011;5200;43.236;27.986;2023-07-16T10:04:58;5.55;;;2.60;;
10309;SDS011;5200;43.236;27.986;2023-07-16T10:07:26;2.97;;;2.25;;
10309;SDS011;5200;43.236;27.986;2023-07-16T10:09:53;2.40;;;2.10;;
10309;SDS011;5200;43.236;27.986;2023-07-16T10:12:22;3.53;;;2.40;;
10309;SDS011;5200;43.236;27.986;2023-07-16T10:14:50;3.40;;;2.10;;
10309;SDS011;5200;43.236;27.986;2023-07-16T10:17:18;5.00;;;2.72;;
10309;SDS011;5200;43.236;27.986;2023-07-16T10:19:46;3.45;;;2.05;;
10309;SDS011;5200;43.236;27.986;2023-07-16T10:22:17;3.33;;;2.10;;
10309;SDS011;5200;43.236;27.986;2023-07-16T10:24:52;2.42;;;2.22;;
10309;SDS011;5200;43.236;27.986;2023-07-16T10:27:29;4.28;;;2.08;;
10309;SDS011;5200;43.236;27.986;2023-07-16T10:29:57;3.38;;;2.75;;
10309;SDS011;5200;43.236;27.986;2023-07-16T10:32:26;3.58;;;2.22;;
10309;SDS011;5200;43.236;27.986;2023-07-16T10:34:54;3.08;;;2.00;;
10309;SDS011;5200;43.236;27.986;2023-07-16T10:37:22;4.38;;;2.20;;
10309;SDS011;5200;43.236;27.986;2023-07-16T10:39:49;2.88;;;1.95;;
10309;SDS011;5200;43.236;27.986;2023-07-16T10:42:19;4.03;;;2.42;;
10309;SDS011;5200;43.236;27.986;2023-07-16T10:44:48;4.88;;;2.70;;
10309;SDS011;5200;43.236;27.986;2023-07-16T10:47:20;4.30;;;2.00;;
10309;SDS011;5200;43.236;27.986;2023-07-16T10:49:54;6.10;;;2.58;;
10309;SDS011;5200;43.236;27.986;2023-07-16T10:52:22;3.40;;;2.20;;
10309;SDS011;5200;43.236;27.986;2023-07-16T10:54:49;3.10;;;2.20;;
10309;SDS011;5200;43.236;27.986;2023-07-16T10:57:19;4.40;;;2.40;;
10309;SDS011;5200;43.236;27.986;2023-07-16T10:59:47;5.28;;;2.40;;
10309;SDS011;5200;43.236;27.986;2023-07-16T11:02:15;4.15;;;2.08;;
10309;SDS011;5200;43.236;27.986;2023-07-16T11:04:43;2.70;;;2.03;;
10309;SDS011;5200;43.236;27.986;2023-07-16T11:07:12;2.22;;;2.00;;
10309;SDS011;5200;43.236;27.986;2023-07-16T11:09:40;4.18;;;2.35;;
10309;SDS011;5200;43.236;27.986;2023-07-16T11:12:10;2.30;;;2.10;;
10309;SDS011;5200;43.236;27.986;2023-07-16T11:14:39;3.28;;;2.20;;
10309;SDS011;5200;43.236;27.986;2023-07-16T11:17:08;2.95;;;1.92;;
10309;SDS011;5200;43.236;27.986;2023-07-16T11:19:36;6.82;;;2.30;;
10309;SDS011;5200;43.236;27.986;2023-07-16T11:22:04;4.85;;;2.70;;
10309;SDS011;5200;43.236;27.986;2023-07-16T11:24:38;2.97;;;2.22;;
10309;SDS011;5200;43.236;27.986;2023-07-16T11:27:06;4.60;;;2.28;;
10309;SDS011;5200;43.236;27.986;2023-07-16T11:29:44;2.13;;;1.92;;
10309;SDS011;5200;43.236;27.986;2023-07-16T11:32:12;3.45;;;2.30;;
10309;SDS011;5200;43.236;27.986;2023-07-16T11:34:51;2.22;;;2.03;;
10309;SDS011;5200;43.236;27.986;2023-07-16T11:37:18;3.03;;;2.10;;
10309;SDS011;5200;43.236;27.986;2023-07-16T11:39:46;4.38;;;2.03;;
10309;SDS011;5200;43.236;27.986;2023-07-16T11:42:17;2.40;;;2.17;;
10309;SDS011;5200;43.236;27.986;2023-07-16T11:44:49;4.18;;;2.30;;
10309;SDS011;5200;43.236;27.986;2023-07-16T11:47:16;2.63;;;2.35;;
10309;SDS011;5200;43.236;27.986;2023-07-16T11:49:43;2.55;;;2.20;;
10309;SDS011;5200;43.236;27.986;2023-07-16T11:52:09;2.10;;;1.95;;
10309;SDS011;5200;43.236;27.986;2023-07-16T11:54:36;2.10;;;1.90;;
10309;SDS011;5200;43.236;27.986;2023-07-16T11:57:03;3.35;;;2.40;;
10309;SDS011;5200;43.236;27.986;2023-07-16T11:59:32;4.88;;;2.72;;
10309;SDS011;5200;43.236;27.986;2023-07-16T12:01:59;5.97;;;2.38;;
10309;SDS011;5200;43.236;27.986;2023-07-16T12:04:26;2.35;;;2.05;;
10309;SDS011;5200;43.236;27.986;2023-07-16T12:06:53;3.65;;;2.00;;
10309;SDS011;5200;43.236;27.986;2023-07-16T12:09:20;2.50;;;2.30;;
10309;SDS011;5200;43.236;27.986;2023-07-16T12:11:47;4.65;;;2.20;;
10309;SDS011;5200;43.236;27.986;2023-07-16T12:14:15;1.85;;;1.75;;
10309;SDS011;5200;43.236;27.986;2023-07-16T12:16:44;2.22;;;2.03;;
10309;SDS011;5200;43.236;27.986;2023-07-16T12:19:11;1.98;;;1.80;;
10309;SDS011;5200;43.236;27.986;2023-07-16T12:21:37;3.88;;;1.98;;
10309;SDS011;5200;43.236;27.986;2023-07-16T12:24:04;4.47;;;2.20;;
10309;SDS011;5200;43.236;27.986;2023-07-16T12:26:31;3.05;;;2.10;;
10309;SDS011;5200;43.236;27.986;2023-07-16T12:28:59;3.40;;;2.25;;
10309;SDS011;5200;43.236;27.986;2023-07-16T12:31:27;3.47;;;1.90;;
10309;SDS011;5200;43.236;27.986;2023-07-16T12:33:56;3.00;;;2.20;;
10309;SDS011;5200;43.236;27.986;2023-07-16T12:36:23;3.90;;;2.35;;
10309;SDS011;5200;43.236;27.986;2023-07-16T12:38:50;2.10;;;1.88;;
10309;SDS011;5200;43.236;27.986;2023-07-16T12:41:17;3.40;;;2.25;;
10309;SDS011;5200;43.236;27.986;2023-07-16T12:43:44;5.20;;;2.30;;
10309;SDS011;5200;43.236;27.986;2023-07-16T12:46:11;3.80;;;2.30;;
10309;SDS011;5200;43.236;27.986;2023-07-16T12:48:38;2.50;;;2.30;;
10309;SDS011;5200;43.236;27.986;2023-07-16T12:51:06;3.80;;;2.50;;
10309;SDS011;5200;43.236;27.986;2023-07-16T12:53:34;2.33;;;2.10;;
10309;SDS011;5200;43.236;27.986;2023-07-16T12:56:01;2.15;;;2.00;;
10309;SDS011;5200;43.236;27.986;2023-07-16T12:58:28;2.15;;;1.90;;
10309;SDS011;5200;43.236;27.986;2023-07-16T13:00:54;2.97;;;2.30;;
10309;SDS011;5200;43.236;27.986;2023-07-16T13:03:21;2.53;;;2.05;;
10309;SDS011;5200;43.236;27.986;2023-07-16T13:05:48;2.10;;;2.00;;
10309;SDS011;5200;43.236;27.986;2023-07-16T13:08:17;3.70;;;1.85;;
10309;SDS011;5200;43.236;27.986;2023-07-16T13:10:47;4.78;;;2.08;;
10309;SDS011;5200;43.236;27.986;2023-07-16T13:13:14;4.03;;;2.22;;
10309;SDS011;5200;43.236;27.986;2023-07-16T13:15:40;2.47;;;2.10;;
10309;SDS011;5200;43.236;27.986;2023-07-16T13:18:09;4.57;;;2.33;;
10309;SDS011;5200;43.236;27.986;2023-07-16T13:20:36;2.10;;;2.00;;
10309;SDS011;5200;43.236;27.986;2023-07-16T13:23:03;4.60;;;1.92;;
10309;SDS011;5200;43.236;27.986;2023-07-16T13:25:32;2.30;;;2.10;;
10309;SDS011;5200;43.236;27.986;2023-07-16T13:27:59;2.20;;;2.00;;
10309;SDS011;5200;43.236;27.986;2023-07-16T13:30:26;3.30;;;2.00;;
10309;SDS011;5200;43.236;27.986;2023-07-16T13:32:53;3.97;;;2.40;;
10309;SDS011;5200;43.236;27.986;2023-07-16T13:35:21;2.47;;;2.28;;
10309;SDS011;5200;43.236;27.986;2023-07-16T13:37:48;3.53;;;2.17;;
10309;SDS011;5200;43.236;27.986;2023-07-16T13:40:15;4.95;;;2.47;;
10309;SDS011;5200;43.236;27.986;2023-07-16T13:42:46;4.10;;;2.13;;
10309;SDS011;5200;43.236;27.986;2023-07-16T13:45:13;4.30;;;2.38;;
10309;SDS011;5200;43.236;27.986;2023-07-16T13:47:40;2.78;;;2.17;;
10309;SDS011;5200;43.236;27.986;2023-07-16T13:50:07;3.40;;;2.30;;
10309;SDS011;5200;43.236;27.986;2023-07-16T13:52:35;3.47;;;2.28;;
10309;SDS011;5200;43.236;27.986;2023-07-16T13:55:07;2.60;;;2.05;;
10309;SDS011;5200;43.236;27.986;2023-07-16T13:57:35;3.33;;;2.15;;
10309;SDS011;5200;43.236;27.986;2023-07-16T14:00:03;2.35;;;2.15;;
10309;SDS011;5200;43.236;27.986;2023-07-16T14:02:34;5.50;;;2.20;;
10309;SDS011;5200;43.236;27.986;2023-07-16T14:05:01;3.90;;;2.17;;
10309;SDS011;5200;43.236;27.986;2023-07-16T14:07:29;2.33;;;2.13;;
10309;SDS011;5200;43.236;27.986;2023-07-16T14:09:56;3.05;;;2.30;;
10309;SDS011;5200;43.236;27.986;2023-07-16T14:12:23;3.60;;;2.25;;
10309;SDS011;5200;43.236;27.986;2023-07-16T14:14:50;2.40;;;2.15;;
10309;SDS011;5200;43.236;27.986;2023-07-16T14:17:19;3.45;;;2.55;;
10309;SDS011;5200;43.236;27.986;2023-07-16T14:19:46;3.25;;;2.30;;
10309;SDS011;5200;43.236;27.986;2023-07-16T14:22:13;4.80;;;2.47;;
10309;SDS011;5200;43.236;27.986;2023-07-16T14:24:40;2.80;;;2.25;;
10309;SDS011;5200;43.236;27.986;2023-07-16T14:27:08;3.45;;;1.88;;
10309;SDS011;5200;43.236;27.986;2023-07-16T14:29:35;5.03;;;2.50;;
10309;SDS011;5200;43.236;27.986;2023-07-16T14:32:02;3.53;;;2.33;;
10309;SDS011;5200;43.236;27.986;2023-07-16T14:34:30;3.83;;;2.38;;
10309;SDS011;5200;43.236;27.986;2023-07-16T14:36:57;2.25;;;2.05;;
10309;SDS011;5200;43.236;27.986;2023-07-16T14:39:24;2.53;;;2.30;;
10309;SDS011;5200;43.236;27.986;2023-07-16T14:41:51;4.18;;;2.30;;
10309;SDS011;5200;43.236;27.986;2023-07-16T14:44:18;6.05;;;2.33;;
10309;SDS011;5200;43.236;27.986;2023-07-16T14:46:45;3.75;;;2.30;;
10309;SDS011;5200;43.236;27.986;2023-07-16T14:49:12;6.38;;;2.50;;
10309;SDS011;5200;43.236;27.986;2023-07-16T14:51:40;3.92;;;2.42;;
10309;SDS011;5200;43.236;27.986;2023-07-16T14:54:07;3.42;;;2.40;;